createdAt,value
2022-11-27T00:01:16.707Z,74.65
2022-11-27T00:03:44.157Z,74.61
2022-11-27T00:06:16.614Z,74.70
2022-11-27T00:08:44.723Z,74.97
2022-11-27T00:11:18.359Z,74.77
2022-11-27T00:13:46.190Z,74.89
2022-11-27T00:16:14.522Z,74.65
2022-11-27T00:18:42.198Z,75.01
2022-11-27T00:21:16.474Z,75.17
2022-11-27T00:23:44.158Z,75.19
2022-11-27T00:26:11.556Z,75.25
2022-11-27T00:28:38.783Z,75.29
2022-11-27T00:31:33.354Z,75.41
2022-11-27T00:34:02.463Z,75.41
2022-11-27T00:36:31.110Z,75.32
2022-11-27T00:38:58.000Z,75.51
2022-11-27T00:41:28.106Z,75.57
2022-11-27T00:43:55.569Z,75.54
2022-11-27T00:46:28.709Z,75.36
2022-11-27T00:48:56.984Z,75.64
2022-11-27T00:51:25.156Z,75.49
2022-11-27T00:53:53.130Z,75.49
2022-11-27T00:56:23.380Z,75.71
2022-11-27T00:58:50.356Z,76.55
2022-11-27T01:01:25.754Z,76.16
2022-11-27T01:03:52.509Z,76.29
2022-11-27T01:06:20.461Z,76.07
2022-11-27T01:08:48.140Z,76.29
2022-11-27T01:11:27.049Z,76.15
2022-11-27T01:13:57.074Z,75.97
2022-11-27T01:16:26.415Z,75.84
2022-11-27T01:18:55.607Z,75.68
2022-11-27T01:21:22.812Z,75.68
2022-11-27T01:23:49.903Z,75.46
2022-11-27T01:26:18.727Z,75.41
2022-11-27T01:28:45.800Z,75.30
2022-11-27T01:31:19.009Z,75.12
2022-11-27T01:33:47.058Z,75.15
2022-11-27T01:36:15.577Z,75.15
2022-11-27T01:38:42.543Z,75.12
2022-11-27T01:41:21.968Z,74.98
2022-11-27T01:43:54.970Z,75.04
2022-11-27T01:46:33.211Z,75.13
2022-11-27T01:49:11.595Z,75.36
2022-11-27T01:51:50.597Z,75.34
2022-11-27T01:54:19.217Z,75.38
2022-11-27T01:56:50.433Z,75.44
2022-11-27T01:59:18.533Z,75.56
2022-11-27T02:01:45.398Z,75.82
2022-11-27T02:04:12.482Z,75.63
2022-11-27T02:06:39.566Z,76.23
2022-11-27T02:09:06.739Z,76.14
2022-11-27T02:11:46.824Z,76.50
2022-11-27T02:14:22.459Z,76.46
2022-11-27T02:17:10.437Z,76.51
2022-11-27T02:20:12.077Z,76.38
2022-11-27T02:23:14.046Z,76.72
2022-11-27T02:26:01.823Z,76.86
2022-11-27T02:28:50.119Z,77.13
2022-11-27T02:31:22.556Z,77.06
2022-11-27T02:33:54.263Z,77.01
2022-11-27T02:36:30.063Z,77.07
2022-11-27T02:39:05.089Z,76.97
2022-11-27T02:41:45.349Z,76.92
2022-11-27T02:44:13.086Z,77.64
2022-11-27T02:46:42.093Z,77.25
2022-11-27T02:49:16.678Z,77.32
2022-11-27T02:51:57.527Z,77.23
2022-11-27T02:54:28.124Z,77.42
2022-11-27T02:56:58.204Z,77.40
2022-11-27T02:59:29.464Z,77.82
2022-11-27T03:02:00.987Z,77.78
2022-11-27T03:04:34.662Z,77.71
2022-11-27T03:07:09.271Z,77.80
2022-11-27T03:09:40.237Z,77.89
2022-11-27T03:12:10.238Z,78.17
2022-11-27T03:14:39.524Z,77.77
2022-11-27T03:17:28.344Z,78.11
2022-11-27T03:20:01.100Z,78.19
2022-11-27T03:22:28.112Z,78.41
2022-11-27T03:24:55.450Z,78.37
2022-11-27T03:27:30.185Z,78.23
2022-11-27T03:30:02.635Z,78.14
2022-11-27T03:32:31.182Z,78.33
2022-11-27T03:34:57.927Z,78.24
2022-11-27T03:37:25.322Z,78.39
2022-11-27T03:39:52.120Z,78.15
2022-11-27T03:42:39.168Z,77.59
2022-11-27T03:45:14.856Z,77.45
2022-11-27T03:47:44.601Z,77.32
2022-11-27T03:50:29.935Z,77.02
2022-11-27T03:53:14.238Z,76.91
2022-11-27T03:56:18.461Z,77.01
2022-11-27T03:59:05.596Z,77.16
2022-11-27T04:01:32.383Z,77.24
2022-11-27T04:03:59.278Z,77.28
2022-11-27T04:06:26.199Z,77.03
2022-11-27T04:08:52.895Z,77.12
2022-11-27T04:11:19.970Z,77.32
2022-11-27T04:13:46.851Z,77.31
2022-11-27T04:16:13.663Z,77.17
2022-11-27T04:18:40.463Z,76.81
2022-11-27T04:21:07.302Z,76.51
2022-11-27T04:23:34.015Z,76.46
2022-11-27T04:26:00.730Z,76.18
2022-11-27T04:28:27.436Z,76.05
2022-11-27T04:30:54.969Z,76.15
2022-11-27T04:33:22.162Z,76.35
2022-11-27T04:35:50.087Z,76.10
2022-11-27T04:38:17.045Z,75.95
2022-11-27T04:40:44.143Z,75.78
2022-11-27T04:43:13.323Z,75.43
2022-11-27T04:45:41.300Z,74.99
2022-11-27T04:48:08.135Z,74.38
2022-11-27T04:50:34.829Z,73.74
2022-11-27T04:53:01.613Z,73.25
2022-11-27T04:55:28.524Z,72.34
2022-11-27T04:57:55.351Z,71.83
2022-11-27T05:00:22.351Z,71.09
2022-11-27T05:02:50.500Z,70.99
2022-11-27T05:05:17.532Z,71.52
2022-11-27T05:07:44.333Z,71.94
2022-11-27T05:10:11.517Z,72.56
2022-11-27T05:12:38.240Z,72.41
2022-11-27T05:15:05.469Z,72.17
2022-11-27T05:17:32.283Z,72.18
2022-11-27T05:20:00.445Z,72.21
2022-11-27T05:22:27.179Z,72.32
2022-11-27T05:24:54.091Z,72.00
2022-11-27T05:27:20.834Z,71.98
2022-11-27T05:29:47.538Z,71.85
2022-11-27T05:32:14.398Z,71.82
2022-11-27T05:34:41.271Z,72.05
2022-11-27T05:37:08.262Z,72.26
2022-11-27T05:39:35.214Z,72.28
2022-11-27T05:42:01.992Z,72.08
2022-11-27T05:44:28.879Z,72.05
2022-11-27T05:46:57.345Z,72.30
2022-11-27T05:49:24.206Z,72.82
2022-11-27T05:51:51.739Z,73.37
2022-11-27T05:54:19.599Z,73.49
2022-11-27T05:56:46.362Z,73.71
2022-11-27T05:59:13.209Z,73.73
2022-11-27T06:01:40.174Z,73.63
2022-11-27T06:04:06.935Z,73.56
2022-11-27T06:06:33.634Z,73.62
2022-11-27T06:09:00.866Z,73.93
2022-11-27T06:11:27.705Z,73.53
2022-11-27T06:13:54.488Z,73.58
2022-11-27T06:16:24.133Z,73.21
2022-11-27T06:18:52.448Z,73.09
2022-11-27T06:21:21.371Z,72.92
2022-11-27T06:23:49.028Z,73.23
2022-11-27T06:26:22.019Z,72.95
2022-11-27T06:28:49.993Z,73.11
2022-11-27T06:31:19.952Z,72.69
2022-11-27T06:33:51.334Z,72.86
2022-11-27T06:36:19.146Z,72.76
2022-11-27T06:38:46.660Z,72.83
2022-11-27T06:41:19.021Z,72.71
2022-11-27T06:43:46.226Z,72.96
2022-11-27T06:46:16.260Z,73.24
2022-11-27T06:48:44.628Z,73.53
2022-11-27T06:51:13.392Z,73.71
2022-11-27T06:53:40.486Z,73.81
2022-11-27T06:56:13.866Z,73.79
2022-11-27T06:58:41.048Z,73.89
2022-11-27T07:01:13.886Z,74.01
2022-11-27T07:03:40.996Z,74.08
2022-11-27T07:06:10.332Z,74.03
2022-11-27T07:08:37.966Z,74.05
2022-11-27T07:11:18.420Z,73.66
2022-11-27T07:13:46.281Z,73.67
2022-11-27T07:16:13.995Z,73.20
2022-11-27T07:18:43.003Z,72.93
2022-11-27T07:21:10.433Z,72.62
2022-11-27T07:23:38.245Z,72.28
2022-11-27T07:26:07.711Z,72.08
2022-11-27T07:28:35.168Z,72.16
2022-11-27T07:31:02.345Z,72.17
2022-11-27T07:33:29.046Z,72.19
2022-11-27T07:36:05.187Z,71.87
2022-11-27T07:38:31.876Z,72.09
2022-11-27T07:41:03.288Z,71.65
2022-11-27T07:43:31.763Z,71.75
2022-11-27T07:45:58.784Z,71.69
2022-11-27T07:48:25.682Z,71.61
2022-11-27T07:50:52.507Z,71.16
2022-11-27T07:53:19.217Z,71.37
2022-11-27T07:55:45.956Z,71.17
2022-11-27T07:58:12.779Z,71.19
2022-11-27T08:00:39.666Z,71.03
2022-11-27T08:03:06.676Z,70.89
2022-11-27T08:05:37.429Z,71.16
2022-11-27T08:08:05.086Z,70.84
2022-11-27T08:10:34.945Z,70.79
2022-11-27T08:13:01.948Z,70.74
2022-11-27T08:15:28.774Z,71.01
2022-11-27T08:17:55.597Z,70.98
2022-11-27T08:20:24.387Z,70.45
2022-11-27T08:22:51.321Z,70.22
2022-11-27T08:25:18.128Z,69.80
2022-11-27T08:27:45.102Z,69.36
2022-11-27T08:30:12.139Z,69.34
2022-11-27T08:32:40.343Z,69.13
2022-11-27T08:35:07.756Z,69.00
2022-11-27T08:37:35.128Z,68.56
2022-11-27T08:40:02.331Z,68.63
2022-11-27T08:42:29.197Z,68.18
2022-11-27T08:44:56.063Z,68.19
2022-11-27T08:47:22.763Z,68.54
2022-11-27T08:49:49.548Z,68.58
2022-11-27T08:52:16.314Z,68.05
2022-11-27T08:54:43.217Z,67.65
2022-11-27T08:57:10.159Z,67.37
2022-11-27T08:59:38.188Z,67.46
2022-11-27T09:02:04.890Z,67.83
2022-11-27T09:04:31.861Z,67.99
2022-11-27T09:06:58.955Z,68.18
2022-11-27T09:09:25.828Z,68.20
2022-11-27T09:11:54.873Z,67.54
2022-11-27T09:14:21.807Z,67.06
2022-11-27T09:16:48.678Z,67.15
2022-11-27T09:19:15.642Z,67.22
2022-11-27T09:21:42.441Z,67.02
2022-11-27T09:24:09.584Z,67.21
2022-11-27T09:26:36.423Z,67.35
2022-11-27T09:29:04.077Z,67.31
2022-11-27T09:31:30.873Z,67.28
2022-11-27T09:33:58.817Z,67.14
2022-11-27T09:36:26.935Z,66.89
2022-11-27T09:38:54.432Z,66.95
2022-11-27T09:41:42.728Z,66.77
2022-11-27T09:44:52.976Z,66.83
2022-11-27T09:47:19.675Z,67.61
2022-11-27T09:49:51.988Z,67.11
2022-11-27T09:53:08.061Z,67.20
2022-11-27T09:55:43.316Z,67.76
2022-11-27T09:58:22.499Z,67.98
2022-11-27T10:00:49.202Z,68.70
2022-11-27T10:03:20.894Z,69.42
2022-11-27T10:06:21.300Z,70.31
2022-11-27T10:09:02.871Z,72.57
2022-11-27T10:11:38.730Z,73.76
2022-11-27T10:14:39.966Z,76.23
2022-11-27T10:17:20.758Z,77.09
2022-11-27T10:20:13.238Z,77.67
2022-11-27T10:22:54.002Z,79.28
2022-11-27T10:25:40.966Z,79.86
2022-11-27T10:28:10.420Z,80.55
2022-11-27T10:30:51.627Z,82.35
2022-11-27T10:33:23.918Z,83.60
2022-11-27T10:35:51.420Z,84.79
2022-11-27T10:38:26.731Z,85.27
2022-11-27T10:41:41.946Z,86.33
2022-11-27T10:44:35.311Z,86.93
2022-11-27T10:47:05.828Z,88.39
2022-11-27T10:49:34.226Z,88.41
2022-11-27T10:52:01.008Z,88.93
2022-11-27T10:54:32.499Z,89.16
2022-11-27T10:57:08.328Z,89.74
2022-11-27T10:59:42.016Z,89.59
2022-11-27T11:02:45.191Z,89.28
2022-11-27T11:06:04.140Z,89.11
2022-11-27T11:08:20.643Z,89.37
2022-11-27T11:11:02.934Z,89.80
2022-11-27T11:13:34.207Z,89.66
2022-11-27T11:16:05.367Z,89.98
2022-11-27T11:18:42.596Z,90.09
2022-11-27T11:21:41.014Z,90.04
2022-11-27T11:24:23.627Z,90.23
2022-11-27T11:26:59.896Z,89.98
2022-11-27T11:29:35.566Z,90.30
2022-11-27T11:32:15.508Z,90.42
2022-11-27T11:34:49.176Z,91.08
2022-11-27T11:37:35.191Z,91.75
2022-11-27T11:40:05.723Z,92.29
2022-11-27T11:42:35.054Z,92.66
2022-11-27T11:45:13.447Z,92.81
2022-11-27T11:47:47.432Z,92.93
2022-11-27T11:50:20.454Z,92.94
2022-11-27T11:53:05.092Z,93.28
2022-11-27T11:56:02.975Z,94.03
2022-11-27T11:58:46.059Z,94.23
2022-11-27T12:01:40.671Z,94.82
2022-11-27T12:04:07.352Z,95.56
2022-11-27T12:06:55.537Z,95.76
2022-11-27T12:09:22.210Z,95.81
2022-11-27T12:11:58.101Z,95.40
2022-11-27T12:14:36.322Z,95.25
2022-11-27T12:17:18.113Z,94.77
2022-11-27T12:20:22.044Z,94.66
2022-11-27T12:23:21.077Z,94.57
2022-11-27T12:26:22.626Z,94.26
2022-11-27T12:28:59.507Z,94.14
2022-11-27T12:31:45.135Z,93.98
2022-11-27T12:34:56.576Z,94.20
2022-11-27T12:37:57.955Z,94.42
2022-11-27T12:40:49.607Z,94.94
2022-11-27T12:43:37.017Z,94.89
2022-11-27T12:46:22.973Z,94.91
2022-11-27T12:49:14.186Z,94.62
2022-11-27T12:51:47.271Z,94.75
2022-11-27T12:54:17.081Z,94.51
2022-11-27T12:56:50.763Z,94.33
2022-11-27T12:59:35.835Z,93.95
2022-11-27T13:02:50.609Z,93.84
2022-11-27T13:05:22.732Z,93.86
2022-11-27T13:07:56.583Z,93.65
2022-11-27T13:10:34.822Z,93.36
2022-11-27T13:13:18.792Z,93.32
2022-11-27T13:15:57.748Z,93.34
2022-11-27T13:18:35.476Z,93.07
2022-11-27T13:21:06.131Z,93.04
2022-11-27T13:23:34.393Z,93.17
2022-11-27T13:26:15.405Z,93.03
2022-11-27T13:28:50.411Z,93.12
2022-11-27T13:31:39.536Z,92.94
2022-11-27T13:34:10.348Z,93.08
2022-11-27T13:36:44.806Z,92.97
2022-11-27T13:39:34.636Z,93.07
2022-11-27T13:42:25.741Z,93.33
2022-11-27T13:44:55.837Z,93.52
2022-11-27T13:47:26.002Z,93.71
2022-11-27T13:50:01.075Z,94.18
2022-11-27T13:52:29.670Z,94.65
2022-11-27T13:55:02.179Z,94.42
2022-11-27T13:57:34.463Z,94.61
2022-11-27T14:00:13.830Z,94.23
2022-11-27T14:02:48.172Z,94.50
2022-11-27T14:05:18.911Z,94.96
2022-11-27T14:07:52.589Z,94.80
2022-11-27T14:10:26.851Z,94.50
2022-11-27T14:13:09.056Z,94.60
2022-11-27T14:15:38.682Z,94.36
2022-11-27T14:18:18.442Z,93.87
2022-11-27T14:20:53.664Z,93.88
2022-11-27T14:23:50.519Z,93.53
2022-11-27T14:26:21.661Z,93.13
2022-11-27T14:28:55.844Z,92.62
2022-11-27T14:31:35.518Z,92.61
2022-11-27T14:34:23.388Z,92.59
2022-11-27T14:36:53.107Z,92.25
2022-11-27T14:39:30.520Z,92.75
2022-11-27T14:41:59.117Z,92.39
2022-11-27T14:44:26.415Z,92.23
2022-11-27T14:46:54.329Z,92.24
2022-11-27T14:49:23.852Z,92.13
2022-11-27T14:51:51.437Z,92.01
2022-11-27T14:54:26.380Z,91.68
2022-11-27T14:56:53.751Z,91.74
2022-11-27T14:59:23.648Z,91.55
2022-11-27T15:02:01.875Z,91.53
2022-11-27T15:04:37.331Z,91.44
2022-11-27T15:07:16.145Z,91.32
2022-11-27T15:09:46.433Z,91.28
2022-11-27T15:12:26.983Z,91.18
2022-11-27T15:15:19.892Z,91.29
2022-11-27T15:17:50.639Z,91.41
2022-11-27T15:20:38.968Z,91.34
2022-11-27T15:23:17.056Z,91.11
2022-11-27T15:25:47.039Z,91.18
2022-11-27T15:28:40.309Z,91.10
2022-11-27T15:31:25.964Z,90.88
2022-11-27T15:34:15.898Z,90.78
2022-11-27T15:36:48.761Z,90.83
2022-11-27T15:39:17.672Z,90.93
2022-11-27T15:41:54.923Z,91.00
2022-11-27T15:44:23.708Z,91.27
2022-11-27T15:46:51.837Z,91.23
2022-11-27T15:49:19.934Z,91.36
2022-11-27T15:51:46.808Z,91.47
2022-11-27T15:54:13.589Z,91.84
2022-11-27T15:56:40.542Z,92.26
2022-11-27T15:59:07.425Z,92.08
2022-11-27T16:01:34.240Z,92.03
2022-11-27T16:04:01.089Z,92.23
2022-11-27T16:06:27.818Z,92.18
2022-11-27T16:08:59.829Z,92.13
2022-11-27T16:11:30.319Z,92.43
2022-11-27T16:13:57.615Z,92.87
2022-11-27T16:16:25.512Z,92.75
2022-11-27T16:18:52.400Z,92.66
2022-11-27T16:21:19.330Z,92.44
2022-11-27T16:23:46.168Z,92.53
2022-11-27T16:26:14.925Z,92.49
2022-11-27T16:28:42.001Z,91.85
2022-11-27T16:31:12.263Z,91.88
2022-11-27T16:33:39.538Z,91.58
2022-11-27T16:36:07.330Z,91.25
2022-11-27T16:38:34.136Z,90.82
2022-11-27T16:41:03.995Z,90.62
2022-11-27T16:43:34.926Z,90.63
2022-11-27T16:46:13.532Z,90.26
2022-11-27T16:48:42.508Z,90.22
2022-11-27T16:51:25.036Z,89.85
2022-11-27T16:53:54.112Z,89.77
2022-11-27T16:56:24.016Z,89.80
2022-11-27T16:58:51.872Z,90.10
2022-11-27T17:01:24.373Z,89.83
2022-11-27T17:03:51.695Z,89.49
2022-11-27T17:06:25.835Z,89.57
2022-11-27T17:08:54.790Z,89.63
2022-11-27T17:11:24.990Z,89.31
2022-11-27T17:13:53.246Z,89.88
2022-11-27T17:16:20.024Z,89.83
2022-11-27T17:18:47.402Z,89.07
2022-11-27T17:21:21.372Z,88.16
2022-11-27T17:23:48.111Z,88.00
2022-11-27T17:26:18.440Z,87.66
2022-11-27T17:28:46.016Z,87.06
2022-11-27T17:31:21.841Z,87.04
2022-11-27T17:33:49.187Z,86.40
2022-11-27T17:36:16.304Z,86.39
2022-11-27T17:38:43.001Z,86.39
2022-11-27T17:41:12.096Z,86.26
2022-11-27T17:43:39.949Z,85.62
2022-11-27T17:46:20.313Z,85.42
2022-11-27T17:48:47.168Z,85.86
2022-11-27T17:51:14.294Z,85.65
2022-11-27T17:53:41.405Z,85.32
2022-11-27T17:56:10.899Z,84.84
2022-11-27T17:58:37.929Z,84.85
2022-11-27T18:01:07.532Z,85.19
2022-11-27T18:03:34.650Z,84.56
2022-11-27T18:06:06.676Z,84.39
2022-11-27T18:08:33.719Z,84.58
2022-11-27T18:11:12.945Z,83.95
2022-11-27T18:13:39.843Z,83.87
2022-11-27T18:16:14.217Z,83.66
2022-11-27T18:18:41.460Z,83.74
2022-11-27T18:21:16.707Z,83.99
2022-11-27T18:24:20.843Z,84.28
2022-11-27T18:27:00.393Z,84.47
2022-11-27T18:29:21.916Z,84.79
2022-11-27T18:31:50.071Z,84.98
2022-11-27T18:34:16.956Z,85.20
2022-11-27T18:36:45.976Z,85.36
2022-11-27T18:39:13.536Z,85.51
2022-11-27T18:41:40.956Z,85.71
2022-11-27T18:44:07.827Z,85.77
2022-11-27T18:46:34.645Z,85.93
2022-11-27T18:49:01.445Z,86.02
2022-11-27T18:51:28.539Z,86.16
2022-11-27T18:53:56.668Z,86.54
2022-11-27T18:56:26.180Z,86.73
2022-11-27T18:58:54.091Z,87.02
2022-11-27T19:01:22.481Z,86.92
2022-11-27T19:03:50.299Z,87.24
2022-11-27T19:06:20.023Z,87.04
2022-11-27T19:08:47.748Z,87.04
2022-11-27T19:11:19.533Z,87.18
2022-11-27T19:13:47.220Z,87.24
2022-11-27T19:16:17.445Z,87.40
2022-11-27T19:18:44.208Z,88.11
2022-11-27T19:21:15.833Z,87.26
2022-11-27T19:23:43.154Z,87.21
2022-11-27T19:26:12.733Z,86.76
2022-11-27T19:28:40.740Z,86.75
2022-11-27T19:31:10.288Z,86.57
2022-11-27T19:33:37.843Z,86.42
2022-11-27T19:36:11.297Z,86.18
2022-11-27T19:38:39.542Z,86.23
2022-11-27T19:41:15.302Z,86.07
2022-11-27T19:43:42.460Z,86.14
2022-11-27T19:46:27.664Z,86.26
2022-11-27T19:48:59.161Z,86.36
2022-11-27T19:51:27.816Z,86.53
2022-11-27T19:53:55.095Z,86.43
2022-11-27T19:56:21.909Z,86.71
2022-11-27T19:58:48.779Z,86.65
2022-11-27T20:01:20.178Z,86.33
2022-11-27T20:03:47.423Z,86.75
2022-11-27T20:06:18.242Z,86.69
2022-11-27T20:08:47.036Z,86.53
2022-11-27T20:11:16.841Z,86.36
2022-11-27T20:13:43.751Z,86.66
2022-11-27T20:16:12.429Z,86.44
2022-11-27T20:18:39.744Z,86.42
2022-11-27T20:21:15.572Z,86.50
2022-11-27T20:23:43.294Z,86.46
2022-11-27T20:26:16.295Z,86.28
2022-11-27T20:28:43.427Z,86.58
2022-11-27T20:31:16.048Z,86.31
2022-11-27T20:33:42.839Z,86.23
2022-11-27T20:36:16.511Z,86.01
2022-11-27T20:38:43.883Z,86.02
2022-11-27T20:41:13.416Z,86.02
2022-11-27T20:43:40.816Z,85.89
2022-11-27T20:46:10.376Z,85.74
2022-11-27T20:48:37.176Z,86.10
2022-11-27T20:51:15.658Z,85.55
2022-11-27T20:53:44.175Z,85.60
2022-11-27T20:56:12.875Z,85.68
2022-11-27T20:58:41.889Z,85.63
2022-11-27T21:01:16.272Z,85.37
2022-11-27T21:03:43.716Z,85.39
2022-11-27T21:06:10.866Z,85.16
2022-11-27T21:08:38.030Z,85.24
2022-11-27T21:11:26.836Z,85.18
2022-11-27T21:13:56.592Z,85.22
2022-11-27T21:16:25.536Z,85.61
2022-11-27T21:18:53.940Z,85.44
2022-11-27T21:21:20.739Z,85.43
2022-11-27T21:23:47.511Z,85.48
2022-11-27T21:26:16.423Z,85.67
2022-11-27T21:28:43.563Z,85.39
2022-11-27T21:31:19.758Z,85.24
2022-11-27T21:33:48.594Z,85.37
2022-11-27T21:36:15.994Z,85.52
2022-11-27T21:38:42.827Z,85.70
2022-11-27T21:41:12.867Z,85.71
2022-11-27T21:43:42.595Z,85.63
2022-11-27T21:46:12.860Z,85.82
2022-11-27T21:48:40.033Z,86.86
2022-11-27T21:51:12.777Z,86.54
2022-11-27T21:53:40.637Z,86.53
2022-11-27T21:56:09.455Z,86.44
2022-11-27T21:58:37.249Z,86.73
2022-11-27T22:01:06.934Z,86.66
2022-11-27T22:03:38.579Z,86.93
2022-11-27T22:06:12.903Z,87.08
2022-11-27T22:08:40.336Z,87.14
2022-11-27T22:11:13.714Z,87.03
2022-11-27T22:13:41.674Z,87.14
2022-11-27T22:16:11.533Z,86.97
2022-11-27T22:18:38.718Z,87.11
2022-11-27T22:21:06.971Z,87.21
2022-11-27T22:23:34.049Z,87.12
2022-11-27T22:26:05.927Z,86.92
2022-11-27T22:28:32.805Z,87.16
2022-11-27T22:30:59.764Z,87.37
2022-11-27T22:33:26.695Z,87.05
2022-11-27T22:35:53.390Z,87.50
2022-11-27T22:38:20.335Z,87.79
2022-11-27T22:40:47.178Z,87.77
2022-11-27T22:43:13.910Z,88.04
2022-11-27T22:45:42.124Z,88.21
2022-11-27T22:48:08.827Z,88.24
2022-11-27T22:50:35.569Z,88.46
2022-11-27T22:53:02.393Z,88.28
2022-11-27T22:55:29.128Z,88.10
2022-11-27T22:57:55.823Z,88.28
2022-11-27T23:00:23.078Z,88.10
2022-11-27T23:02:49.833Z,87.89
2022-11-27T23:05:16.643Z,87.97
2022-11-27T23:07:43.507Z,87.93
2022-11-27T23:10:10.799Z,87.71
2022-11-27T23:12:37.556Z,87.96
2022-11-27T23:15:05.094Z,87.66
2022-11-27T23:17:31.884Z,87.94
2022-11-27T23:19:58.594Z,87.79
2022-11-27T23:22:25.376Z,87.76
2022-11-27T23:24:53.690Z,87.74
2022-11-27T23:27:20.572Z,87.81
2022-11-27T23:29:47.447Z,87.88
2022-11-27T23:32:14.247Z,87.79
2022-11-27T23:34:41.559Z,87.95
2022-11-27T23:37:08.620Z,87.58
2022-11-27T23:39:35.328Z,87.30
2022-11-27T23:42:02.443Z,86.98
2022-11-27T23:44:30.036Z,86.89
2022-11-27T23:46:56.743Z,86.66
2022-11-27T23:49:23.900Z,86.54
2022-11-27T23:51:50.708Z,86.56
2022-11-27T23:54:17.424Z,86.59
2022-11-27T23:56:44.298Z,86.53
2022-11-27T23:59:11.271Z,86.57
